チューク国際空港の過去48時間の天気

チューク国際空港 (Weno Island, Chuuk Int. Airp., Micronesia)

現在時刻: 8/14 07:13 +10 (8/13 21:13 UTC) 以下の時間は現地時間です。

過去48時間のMETAR気象情報
時間 風向 風速(m/s) 視程 気温(℃) 湿度(%) 気圧(hPa) 天気現象
14 05:50 静穏 0 10km以上 25 96 1010.6 弱い雨
14 04:52 静穏 0 10km以上 25 96 1009.4
14 03:52 不定 1 10km以上 24.4 91 1009.3
14 02:52 静穏 0 10km以上 26.1 87 1009.3
14 01:52 静穏 0 10km以上 25.6 87 1009.8
14 00:52 不定 2 10km以上 25.6 90 1010.6 弱いしゅう雨
13 23:51 3 10km以上 26.1 91 1011.6
13 21:52 不定 2 10km以上 25.7 90 1011.6
13 19:55 静穏 0 10km以上 25.6 95 1011
13 18:50 静穏 0 10km以上 25.6 95 1010.5 弱いしゅう雨
13 17:50 静穏 0 10km以上 25.8 96 1010.1
13 16:52 静穏 0 10km以上 26.1 97 1009.3
13 15:52 不定 2 10km以上 25.8 96 1008.9 弱い雨
13 14:50 不定 2 10km以上 26.7 93 1008.8 弱いしゅう雨
13 13:52 静穏 0 10km以上 26.9 94 1008.9 弱いしゅう雨
13 12:50 不定 2 10km以上 28.3 88 1009.4 弱い雨
13 11:50 3 10km以上 30.1 85 1009.6
13 10:51 3 10km以上 30 85 1010
13 09:53 3 10km以上 29.4 88 1010.3
13 08:50 3 10km以上 26.1 90 1010.5 弱いしゅう雨
13 07:50 北東 4 10km以上 27.8 87 1010.6
13 06:50 北東 4 10km以上 28.1 83 1010.1
13 05:50 北東 4 10km以上 26.7 88 1009.4
13 04:52 北東 4 10km以上 27.6 83 1008.9
13 03:54 北東 4 10km以上 27.6 84 1008.8
13 01:51 北東 4 10km以上 27.4 84 1008.4
13 00:52 北東 3 10km以上 27.6 85 1008.9
12 23:55 不定 2 10km以上 26.9 88 1009.4
12 20:50 北東 4 10km以上 27.2 85 1010.5
12 19:50 北北東 3 10km以上 27.6 85 1009.8
12 18:50 3 10km以上 27.5 84 1009.3
12 17:52 3 10km以上 27.8 81 1008.4
12 16:52 不定 2 10km以上 28.1 82 1008.3
12 15:52 3 10km以上 28.3 80 1007.9
12 14:51 北北東 4 10km以上 29.2 76 1007.9
12 13:52 不定 2 10km以上 29.4 81 1008.8
12 12:53 北北東 6 10km以上 28.3 80 1010
12 11:52 北東 4 10km以上 28.9 84 1010.8 弱い雨
12 10:52 5 10km以上 30 85 1011
12 09:52 東南東 2 10km以上 30.4 83 1011.1
12 08:52 不定 2 10km以上 29.4 88 1011.1
12 07:52 不定 2 10km以上 29.9 85 1011.1
PTKK 131950Z 00000KT 14SM -RA FEW012 BKN120 OVC280 25/24 A2984 RMK RAB45 SLP106 T02500243
PTKK 131852Z 00000KT 15SM FEW014 SCT120 OVC280 25/24 A2981 RMK SLP094 T02500244
PTKK 131752Z VRB02KT 15SM FEW014 SCT120 BKN280 24/23 A2980 RMK SLP093 60006 8/178 T02440228 10261 20244 57014
PTKK 131652Z 00000KT 15SM FEW014 SCT120 BKN280 26/24 A2980 RMK SLP093 T02610237
PTKK 131552Z 00000KT 15SM FEW014 SCT120 BKN280 26/23 A2981 RMK SHRAE11 SLP098 T02560232
PTKK 131452Z VRB03KT 13SM -SHRA FEW012CB BKN120 OVC280 26/24 A2984 RMK SHRAB22 CB E-SE SLP106 8/328 T02560239 58010
PTKK 131351Z COR VRB05KT 14SM FEW013 BKN120 OVC280 26/25 A2987 RMK RAE12 SLP116 T02610246
PTKK 131152Z VRB03KT 15SM FEW013CB BKN120 OVC280 26/24 A2987 RMK CB SE-S-SW SLP116 60021 70049 8/328 T02570239 10267 20256 52012
PTKK 130955Z 00000KT 14SM SCT012CB BKN120 OVC280 26/25 A2985 RMK SHRAE30 CB ALQDS SLP110 T02560247
PTKK 130850Z 00000KT 6SM -SHRA SCT010CB OVC100 26/25 A2983 RMK SHRAB19 CB ALQDS SLP105 60015 8/32/ T02560247 51015
PTKK 130750Z 00000KT 15SM FEW012 BKN120 OVC280 26/25 A2983 RMK SLP101 T02580251
PTKK 130652Z 00000KT 15SM SCT014CB BKN120 OVC280 26/26 A2980 RMK RAE44 CB ALQDS SLP093 T02610256
PTKK 130552Z VRB03KT 12SM -RA SCT010CB OVC100 26/25 A2979 RMK SHRAE35RAB35 CB ALQDS SLP089 60012 8/32/ T02580251 10301 20258 55005
PTKK 130450Z VRB03KT 12SM -SHRA SCT010CB OVC100 27/25 A2978 RMK CB ALQDS SLP088 T02670254
PTKK 130352Z 00000KT 10SM -SHRA SCT010CB OVC100 27/26 A2979 RMK RAE40SHRAB40 CB ALQDS SLP089 T02690258
PTKK 130250Z VRB04KT 15SM -RA SCT013CB BKN120 OVC280 28/26 A2980 RMK RAB30 CB ALQDS SLP094 60000 8/328 T02830261 57008
PTKK 130150Z VRB05KT 15SM SCT012 BKN120 OVC280 30/27 A2981 RMK SLP096 T03010272
PTKK 130051Z VRB05KT 15SM SCT012 BKN120 OVC280 30/27 A2982 RMK SLP100 T03000272
PTKK 122353Z VRB05KT 15SM SCT012 BKN120 OVC280 29/27 A2983 RMK SHRAE10 SLP103 60010 8/178 T02940272 10294 20261 52002
PTKK 122250Z VRB05KT 12SM -SHRA SCT012CB OVC120 26/24 A2983 RMK SHRAB20 CB ALQDS SLP105 T02610244
PTKK 122150Z 04007KT 15SM SCT012CB BKN120 OVC280 28/25 A2984 RMK CB ALQDS MOV SW SLP106 T02780254
PTKK 122050Z 04008KT 15SM SCT012CB BKN120 OVC280 28/25 A2982 RMK CB ALQDS SLP101 8/378 T02810250 52014
PTKK 121950Z 04008KT 15SM FEW012 SCT120 BKN280 27/25 A2980 RMK SLP094 T02670245
PTKK 121852Z 04007KT 15SM FEW012 SCT120 BKN280 28/25 A2979 RMK SLP089 T02760245
PTKK 121754Z 04007KT 15SM FEW012 SCT120 BKN280 28/25 A2978 RMK SLP088 60006 8/171 T02760247 10276 20269 57002
PTKK 121551Z 04007KT 15SM FEW012 SCT120 BKN280 27/24 A2977 RMK SLP084 T02740244
PTKK 121452Z 04006KT 15SM FEW012CB SCT120 BKN280 28/25 A2979 RMK CB NE MOV SW SLP089 60006 8/371 T02760248 57012
PTKK 121355Z VRB04KT 15SM FEW012CB BKN120 OVC280 27/25 A2980 RMK SHRAB15E35 CB SE-SW SLP094 T02690248
PTKK 121050Z 04007KT 15SM FEW014 BKN120 OVC280 27/24 A2983 RMK SLP105 T02720244
PTKK 120950Z 02006KT 15SM FEW014 BKN120 OVC280 28/25 A2981 RMK SLP098 T02760248
PTKK 120850Z VRB06KT 15SM FEW014 BKN120 OVC280 28/25 A2980 RMK SLP093 8/171 T02750245 52014
PTKK 120752Z VRB05KT 15SM FEW014 BKN120 OVC280 28/24 A2978 RMK SLP084 T02780243
PTKK 120652Z VRB04KT 15SM FEW014 BKN120 OVC280 28/25 A2977 RMK SLP083 T02810247
PTKK 120552Z VRB05KT 15SM FEW014 BKN120 OVC280 28/25 A2976 RMK SLP079 60000 8/171 T02830246 10304 20283 56020
PTKK 120451Z 03007KT 15SM FEW014 BKN120 OVC280 29/25 A2976 RMK SLP079 T02920245
PTKK 120352Z VRB04KT 15SM FEW014 BKN120 OVC280 29/26 A2978 RMK SLP088 T02940257
PTKK 120253Z 03012G16KT 15SM FEW014 SCT120 OVC280 28/25 A2982 RMK RAE02 SLP100 60000 8/171 T02830246 57012
PTKK 120152Z 04007G15KT 15SM -RA FEW014 BKN120 OVC280 29/26 A2984 RMK RAB30 SLP108 T02890259
PTKK 120052Z 09010G20KT 15SM SCT013CB BKN120 OVC280 30/27 A2985 RMK CB ALQDS MOV W SLP110 T03000272
PTKK 122352Z 11004KT 15SM FEW014 BKN120 BKN280 30/27 A2985 RMK SLP111 8/171 T03040272 10304 20268 51005
PTKK 112252Z VRB04KT 15SM FEW014 BKN120 BKN280 29/27 A2986 RMK SLP111 T02940272
PTKK 112152Z VRB04KT 15SM FEW014TCU BKN120 BKN280 30/27 A2986 RMK TCU S SLP111 T02990272